Time;durP1;ratioP1;P1;durP2;ratioP2;P2;SDS_P1;SDS_P2;PMS_P1;PMS_P2;Temp;Humidity;BMP_temperature;BMP_pressure;BME280_temperature;BME280_humidity;BME280_pressure;Samples;Min_cycle;Max_cycle;Signal;HPM_P1;HPM_P2
2021/03/06 00:02:19;;;;;;;5.80;0.70;;;28.70;17.40;;;;;;5089765;28;20083;-63
2021/03/06 00:04:46;;;;;;;5.13;1.05;;;28.60;16.80;;;;;;5090561;28;20169;-62
2021/03/06 00:07:12;;;;;;;5.80;1.13;;;28.50;17.20;;;;;;5094743;28;20140;-62
2021/03/06 00:09:39;;;;;;;3.08;1.02;;;28.50;17.60;;;;;;5093779;28;20125;-63
2021/03/06 00:12:06;;;;;;;5.78;0.93;;;28.50;17.70;;;;;;5093521;28;20176;-63
2021/03/06 00:14:33;;;;;;;6.47;0.90;;;28.50;18.00;;;;;;5094452;28;20107;-63
2021/03/06 00:17:01;;;;;;;6.93;1.02;;;28.50;17.30;;;;;;5100338;28;20156;-63
2021/03/06 00:19:28;;;;;;;5.88;0.90;;;28.50;17.90;;;;;;5103299;28;20072;-63
2021/03/06 00:21:55;;;;;;;7.25;1.20;;;28.50;18.00;;;;;;5102955;28;20087;-63
2021/03/06 00:24:22;;;;;;;6.93;1.15;;;28.40;17.30;;;;;;5104854;28;20064;-65
2021/03/06 00:26:48;;;;;;;3.95;0.82;;;28.40;16.80;;;;;;5101490;28;20578;-63
2021/03/06 00:29:15;;;;;;;3.65;0.90;;;28.50;16.80;;;;;;5104645;28;20123;-61
2021/03/06 00:31:43;;;;;;;4.25;1.20;;;28.50;17.00;;;;;;5095055;28;20069;-63
2021/03/06 00:34:09;;;;;;;6.75;1.23;;;28.50;16.80;;;;;;5094502;28;20072;-62
2021/03/06 00:36:36;;;;;;;5.85;1.38;;;28.40;16.70;;;;;;5097845;28;20149;-62
2021/03/06 00:39:04;;;;;;;22.35;2.55;;;28.30;16.30;;;;;;5096667;28;20084;-64
2021/03/06 00:41:31;;;;;;;4.40;1.10;;;28.10;17.10;;;;;;5096033;28;20513;-63
2021/03/06 00:43:59;;;;;;;4.90;1.23;;;28.00;17.40;;;;;;5096756;28;20402;-60
2021/03/06 00:46:25;;;;;;;6.82;1.00;;;27.90;17.50;;;;;;5094573;28;20528;-62
2021/03/06 00:48:52;;;;;;;2.08;1.08;;;27.80;17.40;;;;;;5094468;28;20102;-62
2021/03/06 00:51:20;;;;;;;9.57;1.00;;;27.70;17.40;;;;;;5099116;28;20539;-62
2021/03/06 00:53:47;;;;;;;2.47;1.00;;;27.50;18.20;;;;;;5102032;28;20072;-63
2021/03/06 00:56:13;;;;;;;2.70;0.98;;;27.40;18.10;;;;;;5099725;28;20104;-61
2021/03/06 00:58:40;;;;;;;4.63;0.98;;;27.20;18.20;;;;;;5096528;28;20073;-63
2021/03/06 01:01:08;;;;;;;8.88;1.58;;;27.10;18.60;;;;;;5101321;28;20089;-61
2021/03/06 01:03:35;;;;;;;7.45;1.10;;;27.00;19.50;;;;;;5099374;28;20417;-63
2021/03/06 01:06:02;;;;;;;2.67;1.00;;;26.90;19.20;;;;;;5097005;28;20712;-63
2021/03/06 01:08:28;;;;;;;6.68;1.25;;;26.80;19.10;;;;;;5098805;28;20084;-63
2021/03/06 01:10:55;;;;;;;12.07;1.23;;;26.60;19.40;;;;;;5103200;28;20068;-63
2021/03/06 01:13:25;;;;;;;3.55;1.10;;;26.50;19.60;;;;;;5096598;28;20506;-63
2021/03/06 01:15:52;;;;;;;5.90;1.00;;;26.40;19.50;;;;;;5093403;28;20126;-61
2021/03/06 01:18:19;;;;;;;8.93;1.17;;;26.30;19.70;;;;;;5098771;28;20133;-64
2021/03/06 01:20:45;;;;;;;8.77;1.50;;;26.10;19.70;;;;;;5101239;28;20210;-63
2021/03/06 01:23:14;;;;;;;9.90;1.30;;;26.10;19.80;;;;;;5098963;28;20119;-61
2021/03/06 01:25:41;;;;;;;6.38;1.20;;;26.00;19.80;;;;;;5096335;28;20069;-60
2021/03/06 01:28:08;;;;;;;7.47;1.80;;;25.80;19.80;;;;;;5097488;28;20151;-64
2021/03/06 01:30:35;;;;;;;7.85;1.55;;;25.70;20.00;;;;;;5096368;28;21610;-61
2021/03/06 01:33:02;;;;;;;8.48;1.50;;;25.60;20.00;;;;;;5094316;28;20100;-61
2021/03/06 01:35:29;;;;;;;6.63;2.20;;;25.40;20.40;;;;;;5099959;28;21276;-61
2021/03/06 01:37:56;;;;;;;14.23;3.72;;;25.30;20.20;;;;;;5107735;28;20088;-66
2021/03/06 01:40:30;;;;;;;7.75;2.50;;;25.20;20.50;;;;;;5085203;28;20073;-65
2021/03/06 01:42:57;;;;;;;6.85;1.58;;;25.10;20.60;;;;;;5100946;28;20064;-63
2021/03/06 01:45:24;;;;;;;5.38;1.50;;;25.00;20.50;;;;;;5105303;28;20445;-63
2021/03/06 01:47:51;;;;;;;10.20;2.00;;;24.90;20.80;;;;;;5102083;28;20065;-65
2021/03/06 01:50:32;;;;;;;9.55;2.08;;;24.80;20.80;;;;;;5108636;28;20099;-65
2021/03/06 01:53:00;;;;;;;12.00;2.30;;;24.70;21.00;;;;;;5109491;28;20075;-65
2021/03/06 01:55:28;;;;;;;21.17;3.33;;;24.60;21.50;;;;;;5105669;28;20076;-65
2021/03/06 01:57:55;;;;;;;12.73;3.13;;;24.50;21.90;;;;;;5102473;28;20081;-68
2021/03/06 02:00:22;;;;;;;13.75;2.65;;;24.40;22.00;;;;;;5099847;28;20092;-64
2021/03/06 02:02:52;;;;;;;11.25;3.15;;;24.30;22.60;;;;;;5103598;28;20076;-65
2021/03/06 02:05:20;;;;;;;19.67;3.33;;;24.10;22.60;;;;;;5105498;28;20555;-64
2021/03/06 02:07:46;;;;;;;11.40;3.25;;;24.00;22.60;;;;;;5105868;28;20156;-65
2021/03/06 02:10:15;;;;;;;25.13;3.00;;;23.90;22.60;;;;;;5099072;28;20083;-67
2021/03/06 02:13:09;;;;;;;15.93;3.30;;;23.70;23.10;;;;;;5108918;28;20120;-64
2021/03/06 02:16:10;;;;;;;15.43;3.53;;;23.60;23.80;;;;;;5109267;28;20096;-65
2021/03/06 02:18:55;;;;;;;25.83;4.85;;;23.40;24.00;;;;;;5106951;28;20064;-61
2021/03/06 02:21:35;;;;;;;47.20;6.32;;;23.30;24.20;;;;;;5109009;28;20077;-64
2021/03/06 02:24:37;;;;;;;31.70;5.45;;;23.20;24.40;;;;;;5113759;27;20338;-61
2021/03/06 02:27:20;;;;;;;27.10;6.40;;;23.10;24.50;;;;;;5103482;28;20072;-60
2021/03/06 02:30:04;;;;;;;33.25;7.60;;;22.90;24.80;;;;;;5100161;28;20068;-64
2021/03/06 02:32:35;;;;;;;32.47;7.30;;;22.80;25.90;;;;;;5092734;28;20634;-60
2021/03/06 02:35:24;;;;;;;31.45;6.68;;;22.70;25.70;;;;;;5094599;28;20081;-63
2021/03/06 02:37:58;;;;;;;31.80;6.25;;;22.60;25.80;;;;;;5109049;27;20116;-62
2021/03/06 02:40:26;;;;;;;21.83;5.65;;;22.40;26.10;;;;;;5096422;28;20077;-64
2021/03/06 02:42:55;;;;;;;26.80;5.22;;;22.30;26.30;;;;;;5094730;28;20241;-61
2021/03/06 02:45:23;;;;;;;34.60;4.80;;;22.10;26.60;;;;;;5100382;28;20094;-62
2021/03/06 02:47:50;;;;;;;25.42;5.78;;;22.10;26.70;;;;;;5099649;28;20096;-62
2021/03/06 02:50:17;;;;;;;30.52;4.95;;;22.00;27.00;;;;;;5114476;27;20079;-63
2021/03/06 02:52:43;;;;;;;27.80;5.97;;;21.90;27.40;;;;;;5101423;28;20068;-62
2021/03/06 02:55:11;;;;;;;36.65;5.05;;;21.80;27.60;;;;;;5102172;28;20780;-63
2021/03/06 02:57:53;;;;;;;20.60;5.30;;;21.70;27.90;;;;;;5102786;28;20468;-59
2021/03/06 03:00:26;;;;;;;31.83;5.50;;;21.60;28.10;;;;;;5102080;28;20076;-62
2021/03/06 03:03:11;;;;;;;28.00;4.90;;;21.50;28.70;;;;;;5108609;28;20073;-65
2021/03/06 03:05:51;;;;;;;28.25;5.82;;;21.40;29.00;;;;;;5106041;28;20541;-62
2021/03/06 03:08:28;;;;;;;24.60;5.75;;;21.30;29.20;;;;;;5103744;28;20091;-63
2021/03/06 03:11:01;;;;;;;31.33;6.47;;;21.20;29.50;;;;;;5101980;28;20076;-64
2021/03/06 03:13:40;;;;;;;38.90;6.22;;;21.10;29.70;;;;;;5101720;28;20143;-62
2021/03/06 03:16:22;;;;;;;88.97;9.13;;;21.00;29.40;;;;;;5094189;28;20552;-62
2021/03/06 03:18:58;;;;;;;55.88;7.60;;;20.90;30.10;;;;;;5108453;28;20069;-63
2021/03/06 03:21:29;;;;;;;39.25;7.28;;;20.90;30.40;;;;;;5102822;28;20114;-64
2021/03/06 03:24:05;;;;;;;33.38;6.57;;;20.80;30.30;;;;;;5110865;28;20451;-64
2021/03/06 03:26:36;;;;;;;35.75;7.38;;;20.80;30.10;;;;;;5111817;28;20072;-65
2021/03/06 03:29:04;;;;;;;47.10;8.32;;;20.70;30.40;;;;;;5108426;28;20132;-65
2021/03/06 03:31:33;;;;;;;41.92;8.40;;;20.60;30.40;;;;;;5103827;28;20076;-64
2021/03/06 03:34:00;;;;;;;48.58;7.97;;;20.60;30.80;;;;;;5106407;28;20079;-65
2021/03/06 03:36:27;;;;;;;42.25;8.40;;;20.50;31.20;;;;;;5101193;28;20561;-64
2021/03/06 03:38:55;;;;;;;29.40;6.93;;;20.50;32.20;;;;;;5111059;28;20083;-68
2021/03/06 03:41:25;;;;;;;38.08;8.00;;;20.40;31.50;;;;;;5106887;28;20082;-65
2021/03/06 03:43:53;;;;;;;43.78;8.13;;;20.30;31.80;;;;;;5087904;28;20600;-63
2021/03/06 03:46:20;;;;;;;34.22;6.95;;;20.20;31.90;;;;;;5105669;28;20159;-65
2021/03/06 03:48:47;;;;;;;44.45;8.43;;;20.20;31.70;;;;;;5108328;28;20068;-62
2021/03/06 03:51:15;;;;;;;27.92;7.95;;;20.20;32.30;;;;;;5100100;28;20112;-62
2021/03/06 03:53:42;;;;;;;33.90;7.10;;;20.10;32.40;;;;;;5106575;28;20648;-65
2021/03/06 03:56:09;;;;;;;34.97;7.45;;;20.10;32.50;;;;;;5104130;28;20096;-66
2021/03/06 03:58:35;;;;;;;45.55;8.43;;;20.00;33.10;;;;;;5106808;28;20072;-65
2021/03/06 04:01:02;;;;;;;34.38;7.05;;;19.90;32.90;;;;;;5103896;28;20076;-64
2021/03/06 04:03:29;;;;;;;33.47;7.30;;;19.80;33.30;;;;;;5105598;28;20103;-64
2021/03/06 04:06:01;;;;;;;30.08;6.15;;;19.70;33.00;;;;;;5108191;28;20080;-64
2021/03/06 04:08:28;;;;;;;31.48;7.43;;;19.60;32.60;;;;;;5102651;28;20073;-64
2021/03/06 04:10:54;;;;;;;32.33;6.40;;;19.60;32.80;;;;;;5104792;28;20138;-63
2021/03/06 04:13:21;;;;;;;36.97;7.22;;;19.50;32.80;;;;;;5106326;28;20119;-64
2021/03/06 04:15:48;;;;;;;35.63;8.88;;;19.50;33.20;;;;;;5107284;28;20134;-63
2021/03/06 04:18:14;;;;;;;45.58;8.63;;;19.50;33.80;;;;;;5106145;28;20152;-60
2021/03/06 04:20:42;;;;;;;39.97;9.07;;;19.40;34.30;;;;;;5108514;28;20069;-63
2021/03/06 04:23:09;;;;;;;59.20;12.05;;;19.40;34.70;;;;;;5103493;28;20175;-63
2021/03/06 04:25:35;;;;;;;53.65;12.32;;;19.30;33.50;;;;;;5106617;28;20068;-60
2021/03/06 04:28:01;;;;;;;;;;;19.30;33.00;;;;;;5104544;28;20437;-66
2021/03/06 04:30:28;;;;;;;66.40;13.38;;;19.20;34.00;;;;;;5105615;28;20361;-63
2021/03/06 04:32:54;;;;;;;70.13;16.38;;;19.20;33.70;;;;;;5100810;28;20085;-65
2021/03/06 04:35:21;;;;;;;77.07;17.23;;;19.10;33.20;;;;;;5101414;28;20095;-67
2021/03/06 04:37:48;;;;;;;71.95;17.00;;;19.10;32.90;;;;;;5105030;28;20111;-65
2021/03/06 04:40:15;;;;;;;71.07;17.40;;;19.00;32.90;;;;;;5103344;28;20068;-64
2021/03/06 04:42:42;;;;;;;88.07;19.00;;;19.00;33.20;;;;;;5104818;28;20077;-64
2021/03/06 04:45:10;;;;;;;87.55;20.13;;;19.00;33.30;;;;;;5110561;28;20080;-64
2021/03/06 04:47:43;;;;;;;96.25;20.15;;;18.80;48.40;;;;;;5111582;28;20073;-64
2021/03/06 04:50:11;;;;;;;88.07;21.08;;;18.90;41.70;;;;;;5113373;28;20068;-65
2021/03/06 04:52:38;;;;;;;99.07;21.98;;;18.90;33.70;;;;;;5108781;28;20072;-65
2021/03/06 04:55:06;;;;;;;107.70;23.55;;;18.90;33.70;;;;;;5110117;28;20080;-67
2021/03/06 04:57:33;;;;;;;102.70;23.58;;;18.80;33.90;;;;;;5105359;28;20103;-64
2021/03/06 05:00:00;;;;;;;108.40;24.40;;;18.80;34.00;;;;;;5111245;28;20126;-63
2021/03/06 05:02:27;;;;;;;105.50;23.20;;;18.80;34.10;;;;;;5108390;28;20069;-65
2021/03/06 05:04:54;;;;;;;110.88;24.65;;;18.70;34.50;;;;;;5108383;28;20148;-66
2021/03/06 05:07:21;;;;;;;104.88;23.77;;;18.70;34.80;;;;;;5108709;28;20623;-65
2021/03/06 05:09:47;;;;;;;105.53;25.48;;;18.60;35.10;;;;;;5106893;28;20171;-68
2021/03/06 05:12:14;;;;;;;99.35;25.17;;;18.60;36.60;;;;;;5111183;28;20126;-67
2021/03/06 05:14:40;;;;;;;96.53;24.45;;;18.60;35.70;;;;;;5110696;28;20111;-66
2021/03/06 05:17:07;;;;;;;;;;;18.50;35.50;;;;;;5107485;28;20149;-64
2021/03/06 05:19:33;;;;;;;110.20;24.88;;;18.60;50.40;;;;;;5104570;28;20014;-65
2021/03/06 05:22:00;;;;;;;130.45;25.05;;;18.10;37.20;;;;;;5109309;28;20073;-66
2021/03/06 05:24:26;;;;;;;116.72;25.48;;;18.40;36.00;;;;;;5112846;28;20084;-63
2021/03/06 05:27:02;;;;;;;;;;;18.40;36.60;;;;;;5107045;28;20071;-64
2021/03/06 05:29:30;;;;;;;96.40;25.50;;;18.30;37.20;;;;;;5107124;28;20005;-63
2021/03/06 05:31:57;;;;;;;105.70;25.45;;;18.20;37.40;;;;;;5107495;28;20085;-64
2021/03/06 05:34:23;;;;;;;119.25;26.33;;;17.90;50.60;;;;;;5103173;28;20069;-63
2021/03/06 05:36:50;;;;;;;;;;;18.10;36.80;;;;;;5106925;28;20092;-63
2021/03/06 05:39:18;;;;;;;118.97;27.07;;;18.20;54.80;;;;;;5098642;28;20034;-65
2021/03/06 05:41:46;;;;;;;132.05;27.35;;;18.10;37.60;;;;;;5104162;28;20105;-65
2021/03/06 05:44:13;;;;;;;138.00;28.77;;;18.00;37.60;;;;;;5090980;28;20131;-65
2021/03/06 05:46:43;;;;;;;126.55;27.73;;;18.00;37.80;;;;;;5106517;28;20688;-63
2021/03/06 05:49:10;;;;;;;132.52;28.90;;;17.90;38.00;;;;;;5110248;28;20135;-64
2021/03/06 05:51:38;;;;;;;139.68;31.60;;;17.90;38.00;;;;;;5104885;28;20084;-65
2021/03/06 05:54:14;;;;;;;136.88;32.25;;;17.90;37.90;;;;;;5107079;28;20064;-64
2021/03/06 05:56:42;;;;;;;155.43;34.65;;;17.90;37.70;;;;;;5106227;28;20555;-66
2021/03/06 05:59:13;;;;;;;127.55;31.33;;;17.80;37.70;;;;;;5110163;28;20064;-63
2021/03/06 06:01:41;;;;;;;131.52;34.28;;;17.80;38.00;;;;;;5108714;28;20073;-63
2021/03/06 06:04:09;;;;;;;136.23;33.75;;;17.80;38.80;;;;;;5107699;28;20068;-64
2021/03/06 06:06:37;;;;;;;141.70;35.30;;;17.70;39.00;;;;;;5107902;28;20087;-64
2021/03/06 06:09:08;;;;;;;138.23;36.00;;;17.70;38.70;;;;;;5107874;28;20581;-63
2021/03/06 06:11:35;;;;;;;159.52;37.78;;;17.60;38.80;;;;;;5112399;28;20076;-64
2021/03/06 06:14:04;;;;;;;133.40;38.10;;;17.60;38.90;;;;;;5109775;28;20132;-65
2021/03/06 06:16:34;;;;;;;135.13;35.60;;;17.60;38.90;;;;;;5104884;28;21555;-63
2021/03/06 06:19:07;;;;;;;143.27;35.40;;;17.50;40.20;;;;;;5107162;28;20088;-63
2021/03/06 06:21:47;;;;;;;159.43;36.92;;;17.50;39.90;;;;;;5112719;28;20087;-65
2021/03/06 06:24:19;;;;;;;124.85;36.47;;;17.40;39.50;;;;;;5106728;28;20096;-64
2021/03/06 06:26:56;;;;;;;120.90;35.20;;;17.40;39.30;;;;;;5111572;28;20073;-64
2021/03/06 06:29:45;;;;;;;130.35;39.42;;;17.30;39.40;;;;;;5108098;28;20075;-64
2021/03/06 06:32:14;;;;;;;166.23;53.85;;;17.30;40.40;;;;;;5104396;28;20068;-64
2021/03/06 06:34:42;;;;;;;171.55;58.65;;;17.30;40.10;;;;;;5105662;28;20233;-66
2021/03/06 06:37:13;;;;;;;159.70;54.45;;;17.30;40.40;;;;;;5107151;28;20088;-64
2021/03/06 06:39:42;;;;;;;154.00;50.20;;;17.20;40.20;;;;;;5101905;28;20485;-65
2021/03/06 06:42:09;;;;;;;156.32;44.53;;;17.20;40.10;;;;;;5102706;28;20072;-64
2021/03/06 06:44:38;;;;;;;155.55;44.65;;;17.20;40.00;;;;;;5105878;28;20076;-63
2021/03/06 06:47:18;;;;;;;145.48;49.17;;;17.10;40.30;;;;;;5102951;28;20520;-64
2021/03/06 06:49:48;;;;;;;145.20;44.83;;;17.10;41.10;;;;;;5104576;28;20189;-64
2021/03/06 06:52:19;;;;;;;141.70;38.75;;;17.10;40.50;;;;;;5106383;28;20090;-63
2021/03/06 06:55:01;;;;;;;144.77;37.20;;;17.00;40.50;;;;;;5104795;28;20098;-67
2021/03/06 06:57:29;;;;;;;126.00;34.95;;;17.00;40.60;;;;;;5106964;28;20100;-65
2021/03/06 07:00:08;;;;;;;120.85;33.90;;;17.00;40.10;;;;;;5102827;28;20073;-64
2021/03/06 07:02:35;;;;;;;129.50;33.67;;;17.00;39.30;;;;;;5089821;28;20106;-64
2021/03/06 07:05:06;;;;;;;103.32;31.00;;;17.00;38.90;;;;;;5107081;28;20072;-64
2021/03/06 07:07:41;;;;;;;114.05;30.23;;;17.00;37.90;;;;;;5104033;28;20080;-63
2021/03/06 07:10:19;;;;;;;102.10;28.73;;;17.00;37.60;;;;;;5102966;28;20521;-63
2021/03/06 07:12:56;;;;;;;100.95;26.67;;;16.90;37.00;;;;;;5109010;28;20123;-64
2021/03/06 07:15:25;;;;;;;97.60;25.50;;;16.90;36.90;;;;;;5107728;28;20534;-65
2021/03/06 07:17:53;;;;;;;80.18;23.38;;;17.00;36.70;;;;;;5102411;28;20116;-62
2021/03/06 07:20:23;;;;;;;83.80;22.02;;;17.00;36.50;;;;;;5101802;28;20125;-62
2021/03/06 07:22:52;;;;;;;88.45;23.63;;;17.00;36.20;;;;;;5105323;28;20123;-62
2021/03/06 07:25:20;;;;;;;89.00;23.00;;;17.00;35.90;;;;;;5104781;28;20072;-64
2021/03/06 07:27:46;;;;;;;83.60;22.23;;;16.90;36.00;;;;;;5101477;28;20073;-64
2021/03/06 07:30:15;;;;;;;82.85;19.58;;;16.90;36.00;;;;;;5105421;28;20443;-64
2021/03/06 07:32:44;;;;;;;84.25;22.17;;;16.90;34.90;;;;;;5103871;28;20133;-64
2021/03/06 07:35:12;;;;;;;65.45;22.95;;;16.90;34.70;;;;;;5104278;28;20474;-62
2021/03/06 07:37:40;;;;;;;77.47;19.20;;;17.00;35.20;;;;;;5102602;28;20108;-64
2021/03/06 07:40:12;;;;;;;64.05;16.00;;;17.00;34.40;;;;;;5103212;28;20076;-63
2021/03/06 07:42:48;;;;;;;63.45;17.23;;;17.00;34.20;;;;;;5102656;28;20079;-63
2021/03/06 07:45:19;;;;;;;64.47;14.68;;;17.00;34.00;;;;;;5105662;28;20071;-62
2021/03/06 07:47:50;;;;;;;49.40;12.95;;;16.90;33.60;;;;;;5107035;28;20084;-61
2021/03/06 07:50:25;;;;;;;39.92;11.18;;;17.00;34.30;;;;;;5104378;28;20075;-62
2021/03/06 07:52:52;;;;;;;36.20;8.48;;;16.90;33.50;;;;;;5108018;28;20436;-64
2021/03/06 07:55:19;;;;;;;30.50;7.05;;;16.90;33.00;;;;;;5104498;28;20069;-64
2021/03/06 07:58:06;;;;;;;26.08;6.68;;;16.90;32.90;;;;;;5107226;28;20093;-63
2021/03/06 08:00:45;;;;;;;21.80;5.78;;;16.90;32.40;;;;;;5108708;28;20791;-63
2021/03/06 08:03:24;;;;;;;36.67;6.95;;;16.80;33.90;;;;;;5109144;28;20141;-63
2021/03/06 08:05:54;;;;;;;23.20;5.70;;;16.90;32.40;;;;;;5107100;28;20075;-64
2021/03/06 08:08:32;;;;;;;25.05;6.18;;;16.80;33.80;;;;;;5110052;28;20144;-63
2021/03/06 08:11:18;;;;;;;20.77;6.18;;;16.70;32.50;;;;;;5102269;28;20072;-62
2021/03/06 08:13:59;;;;;;;21.58;6.72;;;16.70;33.30;;;;;;5103876;28;20104;-66
2021/03/06 08:16:28;;;;;;;67.07;23.02;;;16.60;33.60;;;;;;5097640;28;20111;-62
2021/03/06 08:18:56;;;;;;;90.25;36.63;;;16.60;43.90;;;;;;5096707;28;20084;-62
2021/03/06 08:21:39;;;;;;;86.30;35.58;;;16.60;33.90;;;;;;5098467;28;20073;-63
2021/03/06 08:24:15;;;;;;;92.53;32.95;;;16.60;34.50;;;;;;5097101;28;20076;-63
2021/03/06 08:27:10;;;;;;;70.18;27.05;;;16.60;34.80;;;;;;5096276;28;20080;-63
2021/03/06 08:29:42;;;;;;;59.75;27.90;;;16.60;34.60;;;;;;5100436;28;20073;-62
2021/03/06 08:32:30;;;;;;;61.63;26.08;;;16.50;49.30;;;;;;5104624;28;20074;-62
2021/03/06 08:35:13;;;;;;;53.60;25.17;;;16.70;34.80;;;;;;5103322;28;20125;-62
2021/03/06 08:37:40;;;;;;;97.43;24.35;;;16.50;35.20;;;;;;5101520;28;20118;-62
2021/03/06 08:40:13;;;;;;;78.15;21.02;;;16.50;35.50;;;;;;5108385;28;20060;-63
2021/03/06 08:42:59;;;;;;;51.65;18.33;;;16.50;35.90;;;;;;5108327;28;20084;-62
2021/03/06 08:45:29;;;;;;;45.08;18.48;;;16.40;35.50;;;;;;5103003;28;20068;-63
2021/03/06 08:48:01;;;;;;;34.53;12.73;;;16.40;35.80;;;;;;5105670;28;20073;-64
2021/03/06 08:50:30;;;;;;;21.52;10.52;;;16.30;34.50;;;;;;5109399;28;20068;-65
2021/03/06 08:53:05;;;;;;;25.98;8.95;;;16.30;33.40;;;;;;5105890;28;20094;-64
2021/03/06 08:55:43;;;;;;;30.33;10.40;;;16.30;33.90;;;;;;5109496;28;20536;-62
2021/03/06 08:58:18;;;;;;;24.83;10.00;;;16.20;33.90;;;;;;5107878;28;20076;-63
2021/03/06 09:00:55;;;;;;;29.17;10.32;;;16.20;33.70;;;;;;5117099;28;20071;-62
2021/03/06 09:03:24;;;;;;;27.37;9.27;;;16.20;34.20;;;;;;5112975;28;20153;-62
2021/03/06 09:05:53;;;;;;;17.80;5.47;;;16.20;34.20;;;;;;5110036;28;20080;-63
2021/03/06 09:08:23;;;;;;;14.63;5.40;;;16.20;32.90;;;;;;5104780;28;20083;-63
2021/03/06 09:10:52;;;;;;;15.10;5.45;;;17.90;55.70;;;;;;5108145;28;20087;-65
2021/03/06 09:13:21;;;;;;;11.63;4.70;;;16.20;32.70;;;;;;5106965;28;20108;-63
2021/03/06 09:16:11;;;;;;;13.98;4.80;;;16.10;32.70;;;;;;5107679;28;20080;-64
2021/03/06 09:18:39;;;;;;;16.95;5.20;;;16.20;33.40;;;;;;5107288;28;20072;-64
2021/03/06 09:21:11;;;;;;;17.48;4.63;;;16.10;33.60;;;;;;5106556;28;20069;-64
2021/03/06 09:23:42;;;;;;;15.88;5.55;;;16.10;33.40;;;;;;5107051;28;20076;-63
2021/03/06 09:26:18;;;;;;;16.10;5.60;;;16.10;33.80;;;;;;5107940;28;20069;-63
2021/03/06 09:28:50;;;;;;;18.70;4.75;;;16.00;33.90;;;;;;5108464;28;20081;-63
2021/03/06 09:31:27;;;;;;;14.65;4.43;;;16.00;33.30;;;;;;5108054;28;20073;-63
2021/03/06 09:33:55;;;;;;;17.60;4.72;;;16.10;32.90;;;;;;5108615;28;20098;-64
2021/03/06 09:36:27;;;;;;;12.75;3.95;;;16.10;33.10;;;;;;5103620;28;20118;-64
2021/03/06 09:38:55;;;;;;;18.65;4.10;;;16.10;32.90;;;;;;5103223;28;20099;-63
2021/03/06 09:41:25;;;;;;;9.48;3.58;;;16.10;33.40;;;;;;5105026;28;20599;-63
2021/03/06 09:43:54;;;;;;;13.32;4.25;;;16.20;34.30;;;;;;5108095;28;20148;-63
2021/03/06 09:46:25;;;;;;;16.75;4.00;;;16.10;33.90;;;;;;5108086;28;20068;-63
2021/03/06 09:48:56;;;;;;;13.35;4.03;;;16.10;33.80;;;;;;5102927;28;20434;-63
2021/03/06 09:51:37;;;;;;;15.23;4.32;;;16.10;34.20;;;;;;5105872;28;20119;-63
2021/03/06 09:54:04;;;;;;;13.32;4.53;;;16.00;34.40;;;;;;5105135;28;20072;-64
2021/03/06 09:56:32;;;;;;;14.32;4.07;;;16.00;34.30;;;;;;5102809;28;20092;-65
2021/03/06 09:59:07;;;;;;;18.08;4.32;;;15.90;34.60;;;;;;5107278;28;20418;-61
2021/03/06 10:01:34;;;;;;;18.58;3.95;;;15.80;34.80;;;;;;5105497;28;20086;-64
2021/03/06 10:04:16;;;;;;;15.88;3.28;;;15.80;35.30;;;;;;5107321;28;20475;-64
2021/03/06 10:06:45;;;;;;;15.82;3.45;;;15.80;35.70;;;;;;5103995;28;20083;-64
2021/03/06 10:09:14;;;;;;;20.83;3.03;;;15.80;35.90;;;;;;5105344;28;20080;-64
2021/03/06 10:11:51;;;;;;;8.32;2.05;;;15.70;36.30;;;;;;5109396;28;20076;-64
2021/03/06 10:14:26;;;;;;;12.05;2.22;;;15.60;36.60;;;;;;5108823;28;20648;-62
2021/03/06 10:16:58;;;;;;;10.98;2.00;;;15.60;36.80;;;;;;5107507;28;20091;-64
2021/03/06 10:19:45;;;;;;;7.15;1.83;;;15.50;37.00;;;;;;5105370;28;20073;-64
2021/03/06 10:22:14;;;;;;;5.78;2.15;;;15.50;36.60;;;;;;5102793;28;20112;-63
2021/03/06 10:25:03;;;;;;;10.55;2.15;;;15.30;36.70;;;;;;5103977;28;20517;-65
2021/03/06 10:27:47;;;;;;;7.93;1.33;;;15.40;36.70;;;;;;5105923;28;20101;-64
2021/03/06 10:30:16;;;;;;;4.93;1.20;;;15.40;36.10;;;;;;5109740;28;20073;-61
2021/03/06 10:32:51;;;;;;;8.57;1.15;;;15.40;35.70;;;;;;5106103;28;20104;-65
2021/03/06 10:35:39;;;;;;;7.82;1.30;;;15.40;35.50;;;;;;5088455;28;20507;-63
2021/03/06 10:38:18;;;;;;;6.50;1.30;;;15.40;35.40;;;;;;5104807;28;20452;-65
2021/03/06 10:40:53;;;;;;;10.93;1.27;;;15.40;35.50;;;;;;5099976;28;20092;-65
2021/03/06 10:43:35;;;;;;;7.28;1.65;;;15.40;35.20;;;;;;5102283;28;20072;-65
2021/03/06 10:46:29;;;;;;;6.28;1.58;;;15.40;35.50;;;;;;5102651;28;20092;-64
2021/03/06 10:49:08;;;;;;;7.10;1.20;;;15.40;35.30;;;;;;5103239;28;20095;-62
2021/03/06 10:52:02;;;;;;;5.60;1.17;;;15.50;35.20;;;;;;5105748;28;20100;-65
2021/03/06 10:54:29;;;;;;;4.28;1.40;;;15.60;35.30;;;;;;5087841;28;20080;-64
2021/03/06 10:57:07;;;;;;;8.95;1.50;;;15.50;35.20;;;;;;5111247;28;20097;-64
2021/03/06 10:59:37;;;;;;;6.13;1.30;;;15.60;35.40;;;;;;5111046;28;20076;-62
2021/03/06 11:02:05;;;;;;;6.80;1.38;;;15.70;35.30;;;;;;5106579;28;20073;-65
2021/03/06 11:04:36;;;;;;;4.60;1.00;;;15.80;35.20;;;;;;5106393;28;20151;-64
2021/03/06 11:07:09;;;;;;;5.90;1.10;;;15.90;35.10;;;;;;5105827;28;20099;-63
2021/03/06 11:09:40;;;;;;;6.57;1.05;;;15.90;34.90;;;;;;5110661;28;20098;-65
2021/03/06 11:12:25;;;;;;;4.95;1.10;;;16.00;34.90;;;;;;5106882;28;20068;-63
2021/03/06 11:15:15;;;;;;;3.75;1.05;;;16.10;34.50;;;;;;5107791;28;20065;-64
2021/03/06 11:17:54;;;;;;;5.53;0.98;;;16.10;34.50;;;;;;5108718;28;20115;-62
2021/03/06 11:20:23;;;;;;;20.48;8.63;;;16.10;34.50;;;;;;5110020;28;20081;-65
2021/03/06 11:22:52;;;;;;;9.57;3.33;;;16.20;34.60;;;;;;5092980;28;20086;-65
2021/03/06 11:25:21;;;;;;;7.68;1.50;;;16.20;34.90;;;;;;5103180;28;20574;-62
2021/03/06 11:27:56;;;;;;;8.60;1.48;;;16.20;35.10;;;;;;5104713;28;20065;-63
2021/03/06 11:30:30;;;;;;;2.78;1.30;;;16.20;35.30;;;;;;5108357;28;20548;-64
2021/03/06 11:32:57;;;;;;;4.30;1.27;;;16.20;35.30;;;;;;5109478;28;20669;-64
2021/03/06 11:35:24;;;;;;;6.47;1.00;;;16.20;36.00;;;;;;5102419;28;20568;-64
2021/03/06 11:37:52;;;;;;;7.88;1.60;;;16.20;36.00;;;;;;5110428;28;20093;-64
2021/03/06 11:40:25;;;;;;;11.23;1.52;;;16.20;36.10;;;;;;5110477;28;20076;-64
2021/03/06 11:42:52;;;;;;;5.95;1.30;;;16.20;36.40;;;;;;5100445;28;20089;-63
2021/03/06 11:45:21;;;;;;;10.45;1.50;;;16.10;36.60;;;;;;5103154;28;20068;-64
2021/03/06 11:47:49;;;;;;;6.78;1.30;;;16.20;37.00;;;;;;5102268;28;20075;-63
2021/03/06 11:50:19;;;;;;;6.15;1.20;;;16.10;37.00;;;;;;5108272;28;20526;-64
2021/03/06 11:52:46;;;;;;;3.72;1.33;;;16.00;37.30;;;;;;5107412;28;20079;-64
2021/03/06 11:55:14;;;;;;;6.32;1.35;;;16.00;37.50;;;;;;5101159;28;20118;-64
2021/03/06 11:57:43;;;;;;;6.53;1.80;;;15.90;37.70;;;;;;5106048;28;20120;-64
2021/03/06 12:00:11;;;;;;;7.40;1.55;;;15.90;37.60;;;;;;5110302;28;20161;-64
2021/03/06 12:02:38;;;;;;;7.63;1.50;;;15.80;37.50;;;;;;5103806;28;20540;-64
2021/03/06 12:05:06;;;;;;;6.47;1.60;;;15.80;38.30;;;;;;5109984;28;20080;-66
2021/03/06 12:07:33;;;;;;;4.93;1.48;;;15.80;38.30;;;;;;5103680;28;20111;-64
2021/03/06 12:10:00;;;;;;;5.47;1.40;;;15.70;38.10;;;;;;5106400;28;20068;-65
2021/03/06 12:12:27;;;;;;;5.63;1.70;;;15.60;38.10;;;;;;5107217;28;20061;-63
2021/03/06 12:14:53;;;;;;;7.65;1.70;;;15.60;38.30;;;;;;5105675;28;20072;-64
2021/03/06 12:17:20;;;;;;;;;;;15.50;38.40;;;;;;5106360;28;20103;-65
2021/03/06 12:19:46;;;;;;;4.97;1.48;;;15.50;39.10;;;;;;5104167;28;20045;-65
2021/03/06 12:22:14;;;;;;;;;;;15.40;39.20;;;;;;5105115;28;20075;-65
2021/03/06 12:24:40;;;;;;;;;;;15.40;39.30;;;;;;5105591;28;19961;-65
2021/03/06 12:27:07;;;;;;;9.05;1.88;;;15.30;39.50;;;;;;5106671;28;20374;-64
2021/03/06 12:29:33;;;;;;;7.90;1.70;;;15.20;39.90;;;;;;5107184;28;20251;-64
2021/03/06 12:32:02;;;;;;;5.65;1.70;;;15.00;39.60;;;;;;5103841;28;21157;-61
2021/03/06 12:34:28;;;;;;;;;;;15.00;39.80;;;;;;5112012;28;20076;-62
2021/03/06 12:36:54;;;;;;;16.38;1.80;;;15.00;39.70;;;;;;5105847;28;19980;-62
2021/03/06 12:39:21;;;;;;;;;;;15.00;39.40;;;;;;5108989;28;20084;-61
2021/03/06 12:41:49;;;;;;;12.77;2.20;;;14.90;39.50;;;;;;5108140;28;19996;-63
2021/03/06 12:44:16;;;;;;;8.10;2.20;;;14.90;39.90;;;;;;5105916;28;20099;-63
2021/03/06 12:46:42;;;;;;;;;;;15.00;40.60;;;;;;5108123;28;20080;-63
2021/03/06 12:49:09;;;;;;;12.02;2.40;;;15.00;40.40;;;;;;5107755;28;19956;-64
2021/03/06 12:51:36;;;;;;;8.10;2.13;;;15.00;40.50;;;;;;5110583;28;20068;-64
2021/03/06 12:54:02;;;;;;;;;;;15.00;40.80;;;;;;5110371;28;20381;-63
2021/03/06 12:56:28;;;;;;;9.70;2.30;;;14.90;40.80;;;;;;5112475;28;19976;-64
2021/03/06 12:58:55;;;;;;;;;;;14.80;40.50;;;;;;5109713;28;20102;-63